createdAt,value
2017-11-05T00:00:59.761Z,100165.23
2017-11-05T00:03:02.266Z,100166.58
2017-11-05T00:05:04.740Z,100168.86
2017-11-05T00:07:07.311Z,100167.09
2017-11-05T00:09:09.736Z,100171.56
2017-11-05T00:11:12.247Z,100170.75
2017-11-05T00:13:14.847Z,100180.06
2017-11-05T00:15:17.289Z,100181.93
2017-11-05T00:17:19.764Z,100180.58
2017-11-05T00:19:22.337Z,100177.08
2017-11-05T00:21:24.776Z,100178.84
2017-11-05T00:23:27.204Z,100184.62
2017-11-05T00:25:29.683Z,100182.48
2017-11-05T00:27:32.211Z,100182.98
2017-11-05T00:29:34.657Z,100182.05
2017-11-05T00:31:37.151Z,100178.02
2017-11-05T00:33:39.634Z,100176.24
2017-11-05T00:35:42.076Z,100172.20
2017-11-05T00:37:44.564Z,100171.27
2017-11-05T00:39:47.057Z,100178.02
2017-11-05T00:41:49.487Z,100173.13
2017-11-05T00:43:51.960Z,100173.13
2017-11-05T00:45:54.390Z,100174.48
2017-11-05T00:47:56.826Z,100168.98
2017-11-05T00:49:59.290Z,100173.55
2017-11-05T00:52:01.730Z,100178.94
2017-11-05T00:54:04.180Z,100174.06
2017-11-05T00:56:06.708Z,100174.89
2017-11-05T00:58:09.156Z,100177.59
2017-11-05T01:00:11.697Z,100177.17
2017-11-05T01:02:14.174Z,100176.24
2017-11-05T01:04:16.615Z,100172.20
2017-11-05T01:06:19.066Z,100172.30
2017-11-05T01:08:21.538Z,100175.41
2017-11-05T01:10:24.087Z,100176.76
2017-11-05T01:12:26.525Z,100184.84
2017-11-05T01:14:28.993Z,100171.88
2017-11-05T01:16:31.432Z,100174.98
2017-11-05T01:18:33.870Z,100177.69
2017-11-05T01:20:36.344Z,100163.78
2017-11-05T01:22:38.779Z,100161.60
2017-11-05T01:24:41.211Z,100163.37
2017-11-05T01:26:43.681Z,100165.23
2017-11-05T01:28:46.118Z,100165.64
2017-11-05T01:30:48.545Z,100168.77
2017-11-05T01:32:51.017Z,100161.18
2017-11-05T01:34:53.526Z,100163.78
2017-11-05T01:36:55.962Z,100168.34
2017-11-05T01:38:58.430Z,100166.06
2017-11-05T01:41:00.870Z,100165.64
2017-11-05T01:43:03.304Z,100164.42
2017-11-05T01:45:05.776Z,100158.91
2017-11-05T01:47:08.216Z,100160.38
2017-11-05T01:49:10.657Z,100163.78
2017-11-05T01:51:13.133Z,100157.68
2017-11-05T01:53:15.588Z,100157.14
2017-11-05T01:55:18.033Z,100151.74
2017-11-05T01:57:20.495Z,100151.33
2017-11-05T01:59:22.930Z,100155.78
2017-11-05T02:01:25.594Z,100155.78
2017-11-05T02:03:28.065Z,100147.83
2017-11-05T02:05:30.508Z,100156.33
2017-11-05T02:07:33.052Z,100154.44
2017-11-05T02:09:35.537Z,100144.70
2017-11-05T02:11:37.981Z,100151.87
2017-11-05T02:13:40.458Z,100150.10
2017-11-05T02:15:43.031Z,100152.80
2017-11-05T02:17:45.465Z,100147.83
2017-11-05T02:19:47.918Z,100147.92
2017-11-05T02:21:50.409Z,100150.52
2017-11-05T02:23:52.848Z,100151.45
2017-11-05T02:25:55.282Z,100152.38
2017-11-05T02:27:57.761Z,100153.31
2017-11-05T02:30:00.205Z,100157.36
2017-11-05T02:32:02.698Z,100147.50
2017-11-05T02:34:05.176Z,100148.84
2017-11-05T02:36:07.621Z,100150.20
2017-11-05T02:38:10.114Z,100154.75
2017-11-05T02:40:12.589Z,100156.52
2017-11-05T02:42:15.055Z,100160.98
2017-11-05T02:44:17.507Z,100159.22
2017-11-05T02:46:20.096Z,100168.66
2017-11-05T02:48:22.525Z,100158.38
2017-11-05T02:50:25.019Z,100162.33
2017-11-05T02:52:27.534Z,100159.73
2017-11-05T02:54:29.976Z,100161.08
2017-11-05T02:56:32.418Z,100158.38
2017-11-05T02:58:34.889Z,100165.13
2017-11-05T03:00:37.336Z,100159.31
2017-11-05T03:02:39.987Z,100159.64
2017-11-05T03:04:42.527Z,100164.70
2017-11-05T03:06:45.000Z,100159.41
2017-11-05T03:08:47.625Z,100163.45
2017-11-05T03:10:50.148Z,100164.70
2017-11-05T03:12:52.590Z,100167.11
2017-11-05T03:14:55.040Z,100173.73
2017-11-05T03:16:57.517Z,100171.55
2017-11-05T03:18:59.962Z,100159.95
2017-11-05T03:21:02.485Z,100161.17
2017-11-05T03:23:05.041Z,100157.26
2017-11-05T03:25:07.487Z,100154.98
2017-11-05T03:27:10.012Z,100158.61
2017-11-05T03:29:12.495Z,100156.71
2017-11-05T03:31:14.929Z,100152.37
2017-11-05T03:33:17.439Z,100148.75
2017-11-05T03:35:19.912Z,100151.95
2017-11-05T03:37:22.349Z,100155.08
2017-11-05T03:39:24.792Z,100149.26
2017-11-05T03:41:27.288Z,100154.14
2017-11-05T03:43:29.723Z,100151.45
2017-11-05T03:45:32.162Z,100151.45
2017-11-05T03:47:34.697Z,100144.80
2017-11-05T03:49:37.167Z,100155.16
2017-11-05T03:51:39.612Z,100155.08
2017-11-05T03:53:42.097Z,100152.89
2017-11-05T03:55:44.538Z,100155.59
2017-11-05T03:57:46.973Z,100156.00
2017-11-05T03:59:49.444Z,100155.59
2017-11-05T04:01:51.888Z,100164.09
2017-11-05T04:03:54.623Z,100160.98
2017-11-05T04:05:57.095Z,100162.75
2017-11-05T04:07:59.536Z,100158.38
2017-11-05T04:10:01.976Z,100156.09
2017-11-05T04:12:04.449Z,100159.73
2017-11-05T04:14:06.915Z,100156.09
2017-11-05T04:16:09.352Z,100161.49
2017-11-05T04:18:11.849Z,100162.00
2017-11-05T04:20:14.343Z,100165.53
2017-11-05T04:22:16.780Z,100165.53
2017-11-05T04:24:19.265Z,100161.49
2017-11-05T04:26:21.718Z,100168.33
2017-11-05T04:28:24.173Z,100166.89
2017-11-05T04:30:26.695Z,100169.16
2017-11-05T04:32:29.145Z,100174.14
2017-11-05T04:34:31.640Z,100179.53
2017-11-05T04:36:34.192Z,100179.02
2017-11-05T04:38:36.640Z,100173.30
2017-11-05T04:40:39.081Z,100172.79
2017-11-05T04:42:41.554Z,100171.44
2017-11-05T04:44:44.049Z,100167.48
2017-11-05T04:46:46.485Z,100176.00
2017-11-05T04:48:49.035Z,100174.14
2017-11-05T04:50:51.485Z,100179.63
2017-11-05T04:52:53.931Z,100181.94
2017-11-05T04:54:56.416Z,100184.09
2017-11-05T04:56:58.856Z,100188.14
2017-11-05T04:59:01.293Z,100191.77
2017-11-05T05:01:03.749Z,100186.37
2017-11-05T05:03:06.183Z,100192.50
2017-11-05T05:05:08.772Z,100201.11
2017-11-05T05:07:11.344Z,100215.10
2017-11-05T05:09:13.793Z,100207.94
2017-11-05T05:11:17.390Z,100207.02
2017-11-05T05:13:19.855Z,100212.82
2017-11-05T05:15:22.341Z,100216.99
2017-11-05T05:17:24.781Z,100224.54
2017-11-05T05:19:27.252Z,100221.42
2017-11-05T05:21:29.697Z,100222.39
2017-11-05T05:23:32.157Z,100226.02
2017-11-05T05:25:34.625Z,100225.09
2017-11-05T05:27:37.061Z,100228.30
2017-11-05T05:29:39.505Z,100226.94
2017-11-05T05:31:41.971Z,100226.43
2017-11-05T05:33:44.413Z,100232.34
2017-11-05T05:35:46.944Z,100236.89
2017-11-05T05:37:49.414Z,100238.24
2017-11-05T05:39:51.848Z,100246.23
2017-11-05T05:41:54.355Z,100249.45
2017-11-05T05:43:57.005Z,100250.28
2017-11-05T05:45:59.448Z,100246.75
2017-11-05T05:48:01.909Z,100252.14
2017-11-05T05:50:04.380Z,100254.00
2017-11-05T05:52:06.839Z,100257.63
2017-11-05T05:54:09.286Z,100257.13
2017-11-05T05:56:11.877Z,100256.28
2017-11-05T05:58:14.308Z,100263.45
2017-11-05T06:00:16.818Z,100265.30
2017-11-05T06:02:19.290Z,100273.81
2017-11-05T06:04:21.743Z,100282.41
2017-11-05T06:06:24.317Z,100284.69
2017-11-05T06:08:26.844Z,100287.39
2017-11-05T06:10:29.284Z,100291.02
2017-11-05T06:12:31.821Z,100308.03
2017-11-05T06:14:34.274Z,100309.38
2017-11-05T06:16:36.720Z,100307.20
2017-11-05T06:18:39.162Z,100307.20
2017-11-05T06:20:41.637Z,100310.82
2017-11-05T06:22:44.095Z,100314.45
2017-11-05T06:24:46.542Z,100318.49
2017-11-05T06:26:49.008Z,100329.28
2017-11-05T06:28:51.448Z,100328.89
2017-11-05T06:30:53.891Z,100338.33
2017-11-05T06:32:56.366Z,100335.73
2017-11-05T06:34:58.845Z,100341.41
2017-11-05T06:37:01.370Z,100336.14
2017-11-05T06:39:03.841Z,100349.63
2017-11-05T06:41:06.481Z,100351.81
2017-11-05T06:43:08.928Z,100351.91
2017-11-05T06:45:11.458Z,100348.38
2017-11-05T06:47:13.891Z,100355.95
2017-11-05T06:49:16.381Z,100361.86
2017-11-05T06:51:18.856Z,100356.88
2017-11-05T06:53:21.300Z,100369.44
2017-11-05T06:55:23.743Z,100383.84
2017-11-05T06:57:26.272Z,100375.75
2017-11-05T06:59:28.708Z,100378.97
2017-11-05T07:01:31.164Z,100380.31
2017-11-05T07:03:33.645Z,100390.17
2017-11-05T07:05:36.149Z,100393.28
2017-11-05T07:07:38.688Z,100387.05
2017-11-05T07:09:41.199Z,100399.61
2017-11-05T07:11:43.632Z,100400.02
2017-11-05T07:13:46.073Z,100405.00
2017-11-05T07:15:48.538Z,100404.16
2017-11-05T07:17:51.065Z,100410.39
2017-11-05T07:19:53.513Z,100414.44
2017-11-05T07:21:56.013Z,100414.44
2017-11-05T07:23:58.452Z,100411.83
2017-11-05T07:26:00.914Z,100423.04
2017-11-05T07:28:03.425Z,100415.79
2017-11-05T07:30:05.868Z,100426.16
2017-11-05T07:32:08.340Z,100429.27
2017-11-05T07:34:10.829Z,100442.75
2017-11-05T07:36:13.301Z,100447.64
2017-11-05T07:38:15.766Z,100449.50
2017-11-05T07:40:18.241Z,100445.45
2017-11-05T07:42:20.677Z,100448.14
2017-11-05T07:44:23.117Z,100458.00
2017-11-05T07:46:25.595Z,100459.77
2017-11-05T07:48:28.162Z,100458.42
2017-11-05T07:50:30.605Z,100459.77
2017-11-05T07:52:33.127Z,100455.73
2017-11-05T07:54:35.574Z,100456.15
2017-11-05T07:56:38.075Z,100447.13
2017-11-05T07:58:40.544Z,100446.29
2017-11-05T08:00:43.041Z,100442.66
2017-11-05T08:02:45.476Z,100439.64
2017-11-05T08:04:47.944Z,100452.94
2017-11-05T08:06:50.372Z,100451.27
2017-11-05T08:08:52.893Z,100460.70
2017-11-05T08:10:55.399Z,100457.50
2017-11-05T08:12:57.862Z,100458.84
2017-11-05T08:15:00.341Z,100461.03
2017-11-05T08:17:02.905Z,100460.19
2017-11-05T08:19:05.421Z,100456.98
2017-11-05T08:21:07.950Z,100460.06
2017-11-05T08:23:10.527Z,100462.38
2017-11-05T08:25:12.980Z,100470.47
2017-11-05T08:27:15.426Z,100467.77
2017-11-05T08:29:17.897Z,100469.12
2017-11-05T08:31:20.409Z,100470.47
2017-11-05T08:33:22.857Z,100473.16
2017-11-05T08:35:25.345Z,100471.81
2017-11-05T08:37:27.816Z,100465.08
2017-11-05T08:39:30.248Z,100465.88
2017-11-05T08:41:32.724Z,100463.73
2017-11-05T08:43:35.161Z,100472.62
2017-11-05T08:45:37.703Z,100470.86
2017-11-05T08:47:40.166Z,100467.23
2017-11-05T08:49:42.605Z,100471.27
2017-11-05T08:51:45.105Z,100471.19
2017-11-05T08:53:47.573Z,100481.97
2017-11-05T08:55:50.007Z,100486.44
2017-11-05T08:57:52.440Z,100490.90
2017-11-05T08:59:54.912Z,100488.63
2017-11-05T09:01:57.354Z,100485.09
2017-11-05T09:03:59.824Z,100493.59
2017-11-05T09:06:02.301Z,100498.48
2017-11-05T09:08:04.749Z,100499.32
2017-11-05T09:10:07.323Z,100507.50
2017-11-05T09:12:09.814Z,100511.87
2017-11-05T09:14:12.276Z,100511.87
2017-11-05T09:16:14.752Z,100516.02
2017-11-05T09:18:17.331Z,100523.17
2017-11-05T09:20:19.777Z,100531.77
2017-11-05T09:22:22.212Z,100537.50
2017-11-05T09:24:24.685Z,100543.31
2017-11-05T09:26:27.120Z,100550.56
2017-11-05T09:28:29.554Z,100555.83
2017-11-05T09:30:32.023Z,100553.68
2017-11-05T09:32:34.486Z,100550.56
2017-11-05T09:34:36.924Z,100560.42
2017-11-05T09:36:39.452Z,100567.59
2017-11-05T09:38:41.940Z,100568.93
2017-11-05T09:40:44.385Z,100567.46
2017-11-05T09:42:46.861Z,100571.20
2017-11-05T09:44:49.364Z,100578.76
2017-11-05T09:46:51.805Z,100582.80
2017-11-05T09:48:54.376Z,100589.45
2017-11-05T09:50:56.821Z,100585.41
2017-11-05T09:52:59.313Z,100580.52
2017-11-05T09:55:01.839Z,100576.48
2017-11-05T09:57:04.304Z,100583.64
2017-11-05T09:59:06.846Z,100584.06
2017-11-05T10:01:09.338Z,100595.69
2017-11-05T10:03:11.860Z,100594.25
2017-11-05T10:05:14.346Z,100597.37
2017-11-05T10:07:16.822Z,100598.72
2017-11-05T10:09:19.257Z,100597.88
2017-11-05T10:11:21.813Z,100595.60
2017-11-05T10:13:24.329Z,100598.20
2017-11-05T10:15:26.780Z,100600.36
2017-11-05T10:17:29.213Z,100600.78
2017-11-05T10:19:31.730Z,100606.51
2017-11-05T10:21:34.176Z,100605.58
2017-11-05T10:23:36.628Z,100602.88
2017-11-05T10:25:39.098Z,100606.00
2017-11-05T10:27:41.618Z,100612.14
2017-11-05T10:29:44.054Z,100606.33
2017-11-05T10:31:46.518Z,100607.56
2017-11-05T10:33:48.951Z,100605.70
2017-11-05T10:35:51.389Z,100606.13
2017-11-05T10:37:53.880Z,100601.56
2017-11-05T10:39:56.325Z,100606.45
2017-11-05T10:41:58.765Z,100607.71
2017-11-05T10:44:01.233Z,100611.22
2017-11-05T10:46:03.673Z,100614.84
2017-11-05T10:48:06.104Z,100610.41
2017-11-05T10:50:08.558Z,100615.27
2017-11-05T10:52:11.049Z,100622.34
2017-11-05T10:54:13.517Z,100618.80
2017-11-05T10:56:15.989Z,100621.83
2017-11-05T10:58:18.460Z,100624.11
2017-11-05T11:00:20.896Z,100643.83
2017-11-05T11:02:23.376Z,100635.64
2017-11-05T11:04:25.878Z,100631.59
2017-11-05T11:06:28.342Z,100632.02
2017-11-05T11:08:30.875Z,100628.78
2017-11-05T11:10:33.388Z,100630.55
2017-11-05T11:12:35.923Z,100634.09
2017-11-05T11:14:38.439Z,100634.59
2017-11-05T11:16:40.914Z,100637.20
2017-11-05T11:18:43.373Z,100629.53
2017-11-05T11:20:45.854Z,100632.23
2017-11-05T11:22:48.304Z,100637.95
2017-11-05T11:24:50.757Z,100640.74
2017-11-05T11:26:53.225Z,100641.58
2017-11-05T11:28:55.674Z,100642.93
2017-11-05T11:30:58.126Z,100643.34
2017-11-05T11:33:00.601Z,100648.74
2017-11-05T11:35:03.029Z,100641.07
2017-11-05T11:37:05.512Z,100647.27
2017-11-05T11:39:07.977Z,100644.58
2017-11-05T11:41:10.422Z,100657.14
2017-11-05T11:43:12.866Z,100645.92
2017-11-05T11:45:15.334Z,100652.58
2017-11-05T11:47:17.767Z,100650.30
2017-11-05T11:49:20.212Z,100651.23
2017-11-05T11:51:22.724Z,100652.41
2017-11-05T11:53:25.276Z,100649.38
2017-11-05T11:55:27.704Z,100651.56
2017-11-05T11:57:30.246Z,100657.80
2017-11-05T11:59:32.671Z,100665.05
2017-11-05T12:01:35.112Z,100663.61
2017-11-05T12:03:37.581Z,100655.52
2017-11-05T12:05:40.023Z,100662.56
2017-11-05T12:07:42.457Z,100648.66
2017-11-05T12:09:44.928Z,100655.40
2017-11-05T12:11:47.369Z,100664.84
2017-11-05T12:13:49.968Z,100660.20
2017-11-05T12:15:52.527Z,100664.24
2017-11-05T12:17:54.968Z,100662.05
2017-11-05T12:19:57.411Z,100664.16
2017-11-05T12:21:59.969Z,100660.53
2017-11-05T12:24:02.523Z,100671.73
2017-11-05T12:26:04.972Z,100670.39
2017-11-05T12:28:07.444Z,100673.51
2017-11-05T12:30:09.890Z,100673.51
2017-11-05T12:32:12.328Z,100674.31
2017-11-05T12:34:14.829Z,100672.97
2017-11-05T12:36:17.270Z,100671.11
2017-11-05T12:38:19.727Z,100667.91
2017-11-05T12:40:22.213Z,100671.02
2017-11-05T12:42:24.653Z,100668.33
2017-11-05T12:44:27.112Z,100663.44
2017-11-05T12:46:29.581Z,100664.28
2017-11-05T12:48:32.018Z,100665.11
2017-11-05T12:50:34.522Z,100671.02
2017-11-05T12:52:36.994Z,100672.28
2017-11-05T12:54:39.528Z,100675.91
2017-11-05T12:56:41.972Z,100671.86
2017-11-05T12:58:44.479Z,100669.58
2017-11-05T13:00:46.984Z,100673.21
2017-11-05T13:02:49.424Z,100676.75
2017-11-05T13:04:51.899Z,100680.38
2017-11-05T13:06:54.351Z,100681.73
2017-11-05T13:08:56.801Z,100672.70
2017-11-05T13:10:59.291Z,100676.12
2017-11-05T13:13:01.756Z,100681.09
2017-11-05T13:15:04.353Z,100681.52
2017-11-05T13:17:06.823Z,100689.09
2017-11-05T13:19:09.267Z,100691.80
2017-11-05T13:21:11.700Z,100691.29
2017-11-05T13:23:14.264Z,100694.08
2017-11-05T13:25:16.696Z,100690.87
2017-11-05T13:27:19.158Z,100694.91
2017-11-05T13:29:21.684Z,100703.02
2017-11-05T13:31:24.257Z,100698.97
2017-11-05T13:33:26.697Z,100706.12
2017-11-05T13:35:29.172Z,100705.20
2017-11-05T13:37:31.708Z,100711.02
2017-11-05T13:39:34.281Z,100721.72
2017-11-05T13:41:36.753Z,100715.91
2017-11-05T13:43:40.146Z,100719.02
2017-11-05T13:45:42.658Z,100723.07
2017-11-05T13:47:45.237Z,100732.01
2017-11-05T13:49:47.698Z,100732.52
2017-11-05T13:51:50.164Z,100741.70
2017-11-05T13:53:52.627Z,100759.87
2017-11-05T13:55:55.071Z,100768.72
2017-11-05T13:57:57.513Z,100765.17
2017-11-05T14:00:00.050Z,100768.50
2017-11-05T14:02:02.488Z,100779.39
2017-11-05T14:04:04.995Z,100782.59
2017-11-05T14:06:07.466Z,100792.97
2017-11-05T14:08:09.920Z,100788.08
2017-11-05T14:10:12.407Z,100800.64
2017-11-05T14:12:15.790Z,100800.14
2017-11-05T14:14:18.225Z,100801.06
2017-11-05T14:16:20.704Z,100805.53
2017-11-05T14:18:23.168Z,100789.77
2017-11-05T14:20:25.610Z,100789.34
2017-11-05T14:22:28.041Z,100787.99
2017-11-05T14:24:30.616Z,100797.95
2017-11-05T14:26:33.093Z,100804.27
2017-11-05T14:28:35.563Z,100802.59
2017-11-05T14:30:38.047Z,100812.03
2017-11-05T14:32:40.489Z,100806.76
2017-11-05T14:34:42.933Z,100812.58
2017-11-05T14:36:45.435Z,100818.06
2017-11-05T14:38:47.915Z,100818.98
2017-11-05T14:40:50.372Z,100820.84
2017-11-05T14:42:52.838Z,100827.59
2017-11-05T14:44:55.276Z,100832.57
2017-11-05T14:46:57.780Z,100838.39
2017-11-05T14:49:00.240Z,100842.09
2017-11-05T14:51:02.690Z,100847.08
2017-11-05T14:53:05.133Z,100845.84
2017-11-05T14:55:07.656Z,100850.31
2017-11-05T14:57:10.116Z,100850.82
2017-11-05T14:59:12.609Z,100848.13
2017-11-05T15:01:15.181Z,100852.68
2017-11-05T15:03:17.706Z,100859.00
2017-11-05T15:05:20.150Z,100862.12
2017-11-05T15:07:22.618Z,100866.77
2017-11-05T15:09:25.056Z,100870.39
2017-11-05T15:11:27.630Z,100860.95
2017-11-05T15:13:30.100Z,100867.27
2017-11-05T15:15:32.572Z,100868.63
2017-11-05T15:17:35.196Z,100875.78
2017-11-05T15:19:37.654Z,100877.67
2017-11-05T15:21:40.085Z,100878.48
2017-11-05T15:23:42.516Z,100883.38
2017-11-05T15:25:44.993Z,100888.27
2017-11-05T15:27:47.461Z,100880.17
2017-11-05T15:29:49.974Z,100891.30
2017-11-05T15:31:52.433Z,100891.21
2017-11-05T15:33:54.913Z,100900.12
2017-11-05T15:35:57.437Z,100905.84
2017-11-05T15:37:59.902Z,100906.36
2017-11-05T15:40:02.343Z,100906.78
2017-11-05T15:42:04.786Z,100912.17
2017-11-05T15:44:07.241Z,100915.80
2017-11-05T15:46:09.785Z,100916.31
2017-11-05T15:48:12.217Z,100919.42
2017-11-05T15:50:14.685Z,100927.64
2017-11-05T15:52:17.130Z,100939.24
2017-11-05T15:54:19.571Z,100942.06
2017-11-05T15:56:22.029Z,100946.62
2017-11-05T15:58:24.472Z,100950.24
2017-11-05T16:00:26.916Z,100953.87
2017-11-05T16:02:29.384Z,100958.00
2017-11-05T16:04:31.820Z,100961.20
2017-11-05T16:06:34.252Z,100965.67
2017-11-05T16:08:36.797Z,100967.02
2017-11-05T16:10:39.270Z,100973.77
2017-11-05T16:12:41.745Z,100979.17
2017-11-05T16:14:44.205Z,100970.56
2017-11-05T16:16:46.646Z,100974.19
2017-11-05T16:18:49.104Z,100989.96
2017-11-05T16:20:51.567Z,100990.47
2017-11-05T16:22:54.088Z,100998.14
2017-11-05T16:24:56.527Z,100994.63
2017-11-05T16:26:59.016Z,101001.38
2017-11-05T16:29:01.465Z,101006.77
2017-11-05T16:31:03.919Z,101011.41
2017-11-05T16:33:06.416Z,101023.05
2017-11-05T16:35:09.005Z,101020.94
2017-11-05T16:37:11.452Z,101023.13
2017-11-05T16:39:13.956Z,101029.03
2017-11-05T16:41:16.418Z,101024.69
2017-11-05T16:43:18.861Z,101023.84
2017-11-05T16:45:21.361Z,101028.39
2017-11-05T16:47:23.809Z,101039.61
2017-11-05T16:49:26.248Z,101041.05
2017-11-05T16:51:28.709Z,101046.02
2017-11-05T16:53:31.152Z,101044.33
2017-11-05T16:55:33.582Z,101051.08
2017-11-05T16:57:36.038Z,101048.50
2017-11-05T16:59:38.477Z,101048.92
2017-11-05T17:01:40.921Z,101053.89
2017-11-05T17:03:43.396Z,101055.33
2017-11-05T17:05:45.832Z,101058.45
2017-11-05T17:07:48.271Z,101056.76
2017-11-05T17:09:50.746Z,101060.39
2017-11-05T17:11:53.177Z,101059.03
2017-11-05T17:13:55.638Z,101065.86
2017-11-05T17:15:58.112Z,101072.19
2017-11-05T17:18:00.583Z,101061.94
2017-11-05T17:20:03.154Z,101056.12
2017-11-05T17:22:05.625Z,101065.64
2017-11-05T17:24:08.093Z,101075.51
2017-11-05T17:26:10.573Z,101074.66
2017-11-05T17:28:13.144Z,101081.91
2017-11-05T17:30:15.611Z,101076.09
2017-11-05T17:32:18.051Z,101082.84
2017-11-05T17:34:20.601Z,101076.60
2017-11-05T17:36:23.054Z,101084.27
2017-11-05T17:38:25.502Z,101086.97
2017-11-05T17:40:27.972Z,101087.93
2017-11-05T17:42:30.411Z,101089.28
2017-11-05T17:44:32.858Z,101090.30
2017-11-05T17:46:35.365Z,101088.94
2017-11-05T17:48:37.804Z,101092.14
2017-11-05T17:50:40.304Z,101091.30
2017-11-05T17:52:42.770Z,101097.12
2017-11-05T17:54:45.261Z,101104.79
2017-11-05T17:56:47.714Z,101107.57
2017-11-05T17:58:50.178Z,101107.06
2017-11-05T18:00:52.617Z,101112.16
2017-11-05T18:02:55.045Z,101111.73
2017-11-05T18:04:57.589Z,101113.08
2017-11-05T18:07:00.071Z,101131.55
2017-11-05T18:09:02.536Z,101121.68
2017-11-05T18:11:04.995Z,101130.70
2017-11-05T18:13:07.470Z,101124.88
2017-11-05T18:15:09.946Z,101124.46
2017-11-05T18:17:12.514Z,101125.81
2017-11-05T18:19:14.978Z,101124.97
2017-11-05T18:21:17.630Z,101125.89
2017-11-05T18:23:20.151Z,101126.82
2017-11-05T18:25:22.605Z,101125.89
2017-11-05T18:27:25.037Z,101132.75
2017-11-05T18:29:27.500Z,101126.40
2017-11-05T18:31:29.940Z,101132.33
2017-11-05T18:33:32.485Z,101133.68
2017-11-05T18:35:35.066Z,101136.88
2017-11-05T18:37:37.525Z,101132.84
2017-11-05T18:39:39.957Z,101135.61
2017-11-05T18:41:42.459Z,101141.01
2017-11-05T18:43:44.900Z,101138.39
2017-11-05T18:45:47.328Z,101139.74
2017-11-05T18:47:49.782Z,101144.30
2017-11-05T18:49:52.259Z,101150.95
2017-11-05T18:51:54.717Z,101151.46
2017-11-05T18:53:57.297Z,101152.92
2017-11-05T18:55:59.757Z,101156.13
2017-11-05T18:58:02.188Z,101162.37
2017-11-05T19:00:04.645Z,101162.87
2017-11-05T19:02:07.091Z,101167.84
2017-11-05T19:04:09.652Z,101169.70
2017-11-05T19:06:12.134Z,101165.65
2017-11-05T19:08:14.686Z,101167.92
2017-11-05T19:10:17.148Z,101171.97
2017-11-05T19:12:19.620Z,101173.83
2017-11-05T19:14:22.088Z,101179.64
2017-11-05T19:16:24.520Z,101181.91
2017-11-05T19:18:27.035Z,101178.80
2017-11-05T19:20:29.468Z,101173.32
2017-11-05T19:22:31.942Z,101179.72
2017-11-05T19:24:34.401Z,101177.87
2017-11-05T19:26:37.801Z,101185.63
2017-11-05T19:28:40.237Z,101182.00
2017-11-05T19:30:42.697Z,101187.51
2017-11-05T19:32:45.244Z,101193.33
2017-11-05T19:34:47.676Z,101192.37
2017-11-05T19:36:50.151Z,101198.30
2017-11-05T19:38:52.587Z,101199.65
2017-11-05T19:40:55.018Z,101197.88
2017-11-05T19:42:57.784Z,101202.42
2017-11-05T19:45:00.264Z,101208.33
2017-11-05T19:47:03.757Z,101210.59
2017-11-05T19:49:06.336Z,101209.25
2017-11-05T19:51:08.803Z,101209.25
2017-11-05T19:53:11.245Z,101211.52
2017-11-05T19:55:13.698Z,101213.80
2017-11-05T19:57:16.487Z,101220.55
2017-11-05T19:59:18.992Z,101221.39
2017-11-05T20:01:21.454Z,101227.28
2017-11-05T20:03:23.929Z,101222.51
2017-11-05T20:05:26.401Z,101224.67
2017-11-05T20:07:28.857Z,101227.37
2017-11-05T20:09:31.302Z,101225.20
2017-11-05T20:11:33.824Z,101226.13
2017-11-05T20:13:36.285Z,101228.41
2017-11-05T20:15:38.728Z,101232.03
2017-11-05T20:17:41.177Z,101231.61
2017-11-05T20:19:43.650Z,101237.00
2017-11-05T20:21:46.184Z,101237.93
2017-11-05T20:23:48.713Z,101235.66
2017-11-05T20:25:51.172Z,101246.44
2017-11-05T20:27:53.680Z,101248.72
2017-11-05T20:29:56.121Z,101253.69
2017-11-05T20:31:58.619Z,101254.62
2017-11-05T20:34:01.067Z,101255.96
2017-11-05T20:36:03.502Z,101254.19
2017-11-05T20:38:05.965Z,101255.96
2017-11-05T20:40:08.502Z,101260.94
2017-11-05T20:42:10.947Z,101259.16
2017-11-05T20:44:13.399Z,101255.23
2017-11-05T20:46:15.833Z,101255.62
2017-11-05T20:48:18.357Z,101253.88
2017-11-05T20:50:20.833Z,101257.51
2017-11-05T20:52:23.268Z,101261.13
2017-11-05T20:54:25.700Z,101263.83
2017-11-05T20:56:28.448Z,101265.68
2017-11-05T20:58:30.884Z,101271.50
2017-11-05T21:00:33.320Z,101268.80
2017-11-05T21:02:35.783Z,101267.53
2017-11-05T21:04:38.235Z,101271.16
2017-11-05T21:06:40.773Z,101276.97
2017-11-05T21:08:43.224Z,101279.75
2017-11-05T21:10:45.714Z,101281.09
2017-11-05T21:12:48.150Z,101286.06
2017-11-05T21:14:50.608Z,101284.72
2017-11-05T21:16:53.039Z,101289.69
2017-11-05T21:18:55.472Z,101289.69
2017-11-05T21:20:57.940Z,101292.92
2017-11-05T21:23:00.459Z,101296.02
2017-11-05T21:25:03.106Z,101296.55
2017-11-05T21:27:05.565Z,101297.89
2017-11-05T21:29:08.101Z,101293.84
2017-11-05T21:31:10.544Z,101291.66
2017-11-05T21:33:13.016Z,101300.17
2017-11-05T21:35:15.504Z,101300.67
2017-11-05T21:37:17.964Z,101299.32
2017-11-05T21:39:20.429Z,101306.06
2017-11-05T21:41:22.865Z,101299.32
2017-11-05T21:43:25.378Z,101306.98
2017-11-05T21:45:27.834Z,101308.34
2017-11-05T21:47:30.272Z,101306.14
2017-11-05T21:49:32.724Z,101312.38
2017-11-05T21:51:35.256Z,101311.12
2017-11-05T21:53:37.695Z,101320.55
2017-11-05T21:55:40.138Z,101314.31
2017-11-05T21:57:42.679Z,101320.13
2017-11-05T21:59:45.120Z,101317.02
2017-11-05T22:01:47.557Z,101317.02
2017-11-05T22:03:50.026Z,101317.12
2017-11-05T22:05:52.486Z,101323.02
2017-11-05T22:07:54.927Z,101320.33
2017-11-05T22:09:57.398Z,101322.09
2017-11-05T22:11:59.840Z,101318.55
2017-11-05T22:14:02.272Z,101325.37
2017-11-05T22:16:04.809Z,101326.64
2017-11-05T22:18:07.249Z,101326.72
2017-11-05T22:20:09.696Z,101327.99
2017-11-05T22:22:12.157Z,101331.61
2017-11-05T22:24:14.606Z,101330.69
2017-11-05T22:26:17.100Z,101330.69
2017-11-05T22:28:19.562Z,101338.36
2017-11-05T22:30:22.096Z,101336.16
2017-11-05T22:32:24.560Z,101336.16
2017-11-05T22:34:27.012Z,101337.52
2017-11-05T22:36:29.455Z,101336.16
2017-11-05T22:38:31.979Z,101342.98
2017-11-05T22:40:34.502Z,101349.73
2017-11-05T22:42:36.940Z,101355.55
2017-11-05T22:44:39.386Z,101356.16
2017-11-05T22:46:41.937Z,101357.39
2017-11-05T22:48:44.377Z,101353.85
2017-11-05T22:50:46.814Z,101359.67
2017-11-05T22:52:49.369Z,101361.94
2017-11-05T22:54:51.796Z,101358.01
2017-11-05T22:56:54.237Z,101363.29
2017-11-05T22:58:56.769Z,101364.25
2017-11-05T23:00:59.246Z,101362.48
2017-11-05T23:03:01.680Z,101364.33
2017-11-05T23:05:04.140Z,101362.98
2017-11-05T23:07:06.592Z,101363.05
2017-11-05T23:09:09.035Z,101364.75
2017-11-05T23:11:11.492Z,101362.55
2017-11-05T23:13:13.968Z,101369.30
2017-11-05T23:15:16.436Z,101371.99
2017-11-05T23:17:18.896Z,101376.55